sensor_id;sensor_type;location;lat;lon;timestamp;pressure;altitude;pressure_sealevel;temperature;humidity
72086;BME280;64750;52.134;5.424;2023-01-04T00:00:38;101993.91;;;7.92;89.92
72086;BME280;64750;52.134;5.424;2023-01-04T00:03:04;101993.91;;;7.92;90.27
72086;BME280;64750;52.134;5.424;2023-01-04T00:05:31;101987.78;;;7.93;90.28
72086;BME280;64750;52.134;5.424;2023-01-04T00:07:58;101975.59;;;7.92;90.28
72086;BME280;64750;52.134;5.424;2023-01-04T00:10:25;101969.44;;;7.93;90.72
72086;BME280;64750;52.134;5.424;2023-01-04T00:12:51;101972.97;;;7.92;90.72
72086;BME280;64750;52.134;5.424;2023-01-04T00:15:18;101977.38;;;7.91;90.91
72086;BME280;64750;52.134;5.424;2023-01-04T00:17:44;101958.13;;;7.92;91.23
72086;BME280;64750;52.134;5.424;2023-01-04T00:20:10;101962.50;;;7.92;91.38
72086;BME280;64750;52.134;5.424;2023-01-04T00:22:37;101959.94;;;7.90;91.60
72086;BME280;64750;52.134;5.424;2023-01-04T00:25:03;101930.28;;;7.89;91.60
72086;BME280;64750;52.134;5.424;2023-01-04T00:27:30;101934.66;;;7.89;91.71
72086;BME280;64750;52.134;5.424;2023-01-04T00:29:56;101922.41;;;7.89;91.62
72086;BME280;64750;52.134;5.424;2023-01-04T00:32:23;101921.50;;;7.91;92.08
72086;BME280;64750;52.134;5.424;2023-01-04T00:34:49;101914.56;;;7.89;92.31
72086;BME280;64750;52.134;5.424;2023-01-04T00:37:15;101898.84;;;7.89;92.15
72086;BME280;64750;52.134;5.424;2023-01-04T00:39:42;101898.84;;;7.91;92.42
72086;BME280;64750;52.134;5.424;2023-01-04T00:42:08;101891.00;;;7.89;92.19
72086;BME280;64750;52.134;5.424;2023-01-04T00:44:35;101898.84;;;7.91;92.22
72086;BME280;64750;52.134;5.424;2023-01-04T00:47:02;101894.38;;;7.93;92.47
72086;BME280;64750;52.134;5.424;2023-01-04T00:49:29;101890.09;;;7.91;93.03
72086;BME280;64750;52.134;5.424;2023-01-04T00:51:57;101878.72;;;7.92;93.00
72086;BME280;64750;52.134;5.424;2023-01-04T00:54:23;101886.53;;;7.93;93.19
72086;BME280;64750;52.134;5.424;2023-01-04T00:56:50;101873.41;;;7.95;93.23
72086;BME280;64750;52.134;5.424;2023-01-04T00:59:19;101870.81;;;7.95;93.04
72086;BME280;64750;52.134;5.424;2023-01-04T01:01:46;101852.47;;;7.95;92.99
72086;BME280;64750;52.134;5.424;2023-01-04T01:04:15;101855.88;;;7.97;93.32
72086;BME280;64750;52.134;5.424;2023-01-04T01:06:43;101848.03;;;7.97;93.54
72086;BME280;64750;52.134;5.424;2023-01-04T01:09:10;101840.16;;;7.97;93.93
72086;BME280;64750;52.134;5.424;2023-01-04T01:11:37;101844.50;;;7.98;93.70
72086;BME280;64750;52.134;5.424;2023-01-04T01:14:07;101827.91;;;7.99;93.85
72086;BME280;64750;52.134;5.424;2023-01-04T01:16:34;101827.00;;;8.00;93.94
72086;BME280;64750;52.134;5.424;2023-01-04T01:19:20;101818.28;;;7.99;93.78
72086;BME280;64750;52.134;5.424;2023-01-04T01:21:47;101823.44;;;8.01;93.87
72086;BME280;64750;52.134;5.424;2023-01-04T01:24:18;101809.47;;;8.02;94.12
72086;BME280;64750;52.134;5.424;2023-01-04T01:26:44;101806.84;;;8.02;94.24
72086;BME280;64750;52.134;5.424;2023-01-04T01:29:11;101818.13;;;8.04;94.64
72086;BME280;64750;52.134;5.424;2023-01-04T01:31:39;101793.66;;;8.05;94.47
72086;BME280;64750;52.134;5.424;2023-01-04T01:34:06;101769.16;;;8.06;94.41
72086;BME280;64750;52.134;5.424;2023-01-04T01:36:32;101787.47;;;8.08;94.93
72086;BME280;64750;52.134;5.424;2023-01-04T01:38:59;101791.75;;;8.09;94.69
72086;BME280;64750;52.134;5.424;2023-01-04T01:41:31;101794.34;;;8.10;94.73
72086;BME280;64750;52.134;5.424;2023-01-04T01:46:43;101798.56;;;8.14;95.08
72086;BME280;64750;52.134;5.424;2023-01-04T01:49:17;101794.13;;;8.16;95.28
72086;BME280;64750;52.134;5.424;2023-01-04T01:51:47;101787.06;;;8.18;95.07
72086;BME280;64750;52.134;5.424;2023-01-04T01:54:21;101786.19;;;8.19;95.18
72086;BME280;64750;52.134;5.424;2023-01-04T01:56:49;101790.50;;;8.20;95.44
72086;BME280;64750;52.134;5.424;2023-01-04T01:59:17;101782.59;;;8.22;95.54
72086;BME280;64750;52.134;5.424;2023-01-04T02:01:44;101787.66;;;8.27;95.42
72086;BME280;64750;52.134;5.424;2023-01-04T02:04:11;101773.66;;;8.28;95.40
72086;BME280;64750;52.134;5.424;2023-01-04T02:06:46;101779.69;;;8.30;95.78
72086;BME280;64750;52.134;5.424;2023-01-04T02:09:13;101777.88;;;8.32;95.79
72086;BME280;64750;52.134;5.424;2023-01-04T02:11:40;101779.53;;;8.34;95.84
72086;BME280;64750;52.134;5.424;2023-01-04T02:14:08;101764.63;;;8.36;95.65
72086;BME280;64750;52.134;5.424;2023-01-04T02:22:51;101762.69;;;8.42;96.11
72086;BME280;64750;52.134;5.424;2023-01-04T02:34:02;101753.53;;;8.53;96.03
72086;BME280;64750;52.134;5.424;2023-01-04T02:36:47;101761.41;;;8.53;96.13
72086;BME280;64750;52.134;5.424;2023-01-04T02:39:28;101748.28;;;8.55;96.60
72086;BME280;64750;52.134;5.424;2023-01-04T02:42:20;101742.91;;;8.58;96.12
72086;BME280;64750;52.134;5.424;2023-01-04T02:44:49;101735.84;;;8.60;96.57
72086;BME280;64750;52.134;5.424;2023-01-04T02:47:30;101731.44;;;8.61;96.60
72086;BME280;64750;52.134;5.424;2023-01-04T02:53:11;101733.03;;;8.65;96.60
72086;BME280;64750;52.134;5.424;2023-01-04T03:07:26;101710.94;;;8.72;97.14
72086;BME280;64750;52.134;5.424;2023-01-04T03:10:07;101714.31;;;8.76;97.00
72086;BME280;64750;52.134;5.424;2023-01-04T03:12:41;101717.69;;;8.78;97.34
72086;BME280;64750;52.134;5.424;2023-01-04T03:15:17;101707.13;;;8.81;97.48
72086;BME280;64750;52.134;5.424;2023-01-04T03:17:49;101717.47;;;8.84;97.44
72086;BME280;64750;52.134;5.424;2023-01-04T03:20:19;101707.84;;;8.84;97.56
72086;BME280;64750;52.134;5.424;2023-01-04T03:22:51;101705.09;;;8.88;97.62
72086;BME280;64750;52.134;5.424;2023-01-04T03:25:40;101706.81;;;8.89;97.53
72086;BME280;64750;52.134;5.424;2023-01-04T03:28:32;101708.53;;;8.90;97.75
72086;BME280;64750;52.134;5.424;2023-01-04T03:31:22;101695.22;;;8.94;97.46
72086;BME280;64750;52.134;5.424;2023-01-04T03:34:09;101690.03;;;8.93;97.90
72086;BME280;64750;52.134;5.424;2023-01-04T03:37:05;101689.91;;;8.96;98.02
72086;BME280;64750;52.134;5.424;2023-01-04T03:39:43;101699.47;;;8.97;97.97
72086;BME280;64750;52.134;5.424;2023-01-04T03:42:35;101694.13;;;9.00;97.92
72086;BME280;64750;52.134;5.424;2023-01-04T03:45:28;101694.00;;;9.03;98.09
72086;BME280;64750;52.134;5.424;2023-01-04T03:48:21;101684.34;;;9.03;97.75
72086;BME280;64750;52.134;5.424;2023-01-04T03:53:32;101676.91;;;9.15;98.12
72086;BME280;64750;52.134;5.424;2023-01-04T03:56:01;101681.19;;;9.17;98.05
72086;BME280;64750;52.134;5.424;2023-01-04T03:58:28;101682.06;;;9.18;98.26
72086;BME280;64750;52.134;5.424;2023-01-04T04:00:54;101690.75;;;9.18;98.37
72086;BME280;64750;52.134;5.424;2023-01-04T04:03:30;101681.72;;;9.26;98.08
72086;BME280;64750;52.134;5.424;2023-01-04T04:06:15;101655.38;;;9.29;98.43
72086;BME280;64750;52.134;5.424;2023-01-04T04:09:00;101668.47;;;9.29;98.30
72086;BME280;64750;52.134;5.424;2023-01-04T04:11:26;101659.69;;;9.30;98.20
72086;BME280;64750;52.134;5.424;2023-01-04T04:13:56;101663.06;;;9.33;98.26
72086;BME280;64750;52.134;5.424;2023-01-04T04:16:24;101662.91;;;9.36;98.05
72086;BME280;64750;52.134;5.424;2023-01-04T04:18:51;101641.84;;;9.38;98.10
72086;BME280;64750;52.134;5.424;2023-01-04T04:21:17;101639.13;;;9.41;97.88
72086;BME280;64750;52.134;5.424;2023-01-04T04:23:44;101631.81;;;9.48;97.81
72086;BME280;64750;52.134;5.424;2023-01-04T04:26:10;101624.69;;;9.51;98.03
72086;BME280;64750;52.134;5.424;2023-01-04T04:28:36;101631.56;;;9.54;98.06
72086;BME280;64750;52.134;5.424;2023-01-04T04:31:05;101627.09;;;9.56;97.76
72086;BME280;64750;52.134;5.424;2023-01-04T04:33:31;101636.75;;;9.56;97.82
72086;BME280;64750;52.134;5.424;2023-01-04T04:35:58;101624.47;;;9.56;97.81
72086;BME280;64750;52.134;5.424;2023-01-04T04:38:24;101620.94;;;9.57;97.55
72086;BME280;64750;52.134;5.424;2023-01-04T04:40:50;101615.50;;;9.62;97.58
72086;BME280;64750;52.134;5.424;2023-01-04T04:43:35;101602.16;;;9.66;97.44
72086;BME280;64750;52.134;5.424;2023-01-04T04:46:02;101613.50;;;9.67;97.56
72086;BME280;64750;52.134;5.424;2023-01-04T04:48:29;101619.56;;;9.69;97.27
72086;BME280;64750;52.134;5.424;2023-01-04T04:50:56;101608.91;;;9.72;97.12
72086;BME280;64750;52.134;5.424;2023-01-04T04:53:22;101606.22;;;9.74;96.92
72086;BME280;64750;52.134;5.424;2023-01-04T04:55:54;101590.38;;;9.75;97.23
72086;BME280;64750;52.134;5.424;2023-01-04T04:58:21;101600.13;;;9.73;96.97
72086;BME280;64750;52.134;5.424;2023-01-04T05:00:47;101593.16;;;9.72;97.17
72086;BME280;64750;52.134;5.424;2023-01-04T05:03:14;101595.78;;;9.72;97.27
72086;BME280;64750;52.134;5.424;2023-01-04T05:05:41;101594.22;;;9.68;97.35
72086;BME280;64750;52.134;5.424;2023-01-04T05:08:07;101588.09;;;9.67;97.44
72086;BME280;64750;52.134;5.424;2023-01-04T05:10:34;101593.34;;;9.67;97.51
72086;BME280;64750;52.134;5.424;2023-01-04T05:13:00;101596.78;;;9.69;97.75
72086;BME280;64750;52.134;5.424;2023-01-04T05:15:38;101601.03;;;9.72;97.78
72086;BME280;64750;52.134;5.424;2023-01-04T05:18:05;101593.09;;;9.74;98.18
72086;BME280;64750;52.134;5.424;2023-01-04T05:20:33;101589.75;;;9.70;98.10
72086;BME280;64750;52.134;5.424;2023-01-04T05:23:00;101587.00;;;9.73;98.15
72086;BME280;64750;52.134;5.424;2023-01-04T05:25:26;101579.13;;;9.73;98.22
72086;BME280;64750;52.134;5.424;2023-01-04T05:27:53;101586.09;;;9.74;98.07
72086;BME280;64750;52.134;5.424;2023-01-04T05:30:20;101590.53;;;9.72;98.38
72086;BME280;64750;52.134;5.424;2023-01-04T05:33:06;101575.69;;;9.71;98.50
72086;BME280;64750;52.134;5.424;2023-01-04T05:35:33;101577.41;;;9.72;98.50
72086;BME280;64750;52.134;5.424;2023-01-04T05:37:59;101571.25;;;9.73;98.44
72086;BME280;64750;52.134;5.424;2023-01-04T05:40:26;101564.13;;;9.75;98.47
72086;BME280;64750;52.134;5.424;2023-01-04T05:42:53;101565.84;;;9.76;98.45
72086;BME280;64750;52.134;5.424;2023-01-04T05:45:19;101557.06;;;9.77;98.47
72086;BME280;64750;52.134;5.424;2023-01-04T05:47:53;101550.09;;;9.76;98.48
72086;BME280;64750;52.134;5.424;2023-01-04T05:50:21;101551.81;;;9.77;98.76
72086;BME280;64750;52.134;5.424;2023-01-04T05:52:48;101545.63;;;9.78;98.71
72086;BME280;64750;52.134;5.424;2023-01-04T05:55:15;101538.59;;;9.79;98.63
72086;BME280;64750;52.134;5.424;2023-01-04T05:57:42;101527.09;;;9.81;98.65
72086;BME280;64750;52.134;5.424;2023-01-04T06:00:09;101531.44;;;9.82;98.66
72086;BME280;64750;52.134;5.424;2023-01-04T06:02:36;101535.84;;;9.82;98.80
72086;BME280;64750;52.134;5.424;2023-01-04T06:05:03;101523.56;;;9.82;98.78
72086;BME280;64750;52.134;5.424;2023-01-04T06:07:31;101528.81;;;9.82;98.82
72086;BME280;64750;52.134;5.424;2023-01-04T06:09:58;101541.03;;;9.83;98.86
72086;BME280;64750;52.134;5.424;2023-01-04T06:12:24;101542.75;;;9.84;98.79
72086;BME280;64750;52.134;5.424;2023-01-04T06:14:51;101537.34;;;9.88;98.77
72086;BME280;64750;52.134;5.424;2023-01-04T06:17:17;101526.69;;;9.91;99.11
72086;BME280;64750;52.134;5.424;2023-01-04T06:19:44;101532.88;;;9.90;98.76
72086;BME280;64750;52.134;5.424;2023-01-04T06:22:10;101527.63;;;9.90;98.93
72086;BME280;64750;52.134;5.424;2023-01-04T06:24:36;101540.59;;;9.93;98.96
72086;BME280;64750;52.134;5.424;2023-01-04T06:27:03;101544.03;;;9.95;98.79
72086;BME280;64750;52.134;5.424;2023-01-04T06:29:30;101542.31;;;9.94;98.94
72086;BME280;64750;52.134;5.424;2023-01-04T06:31:56;101542.31;;;9.94;99.03
72086;BME280;64750;52.134;5.424;2023-01-04T06:34:23;101541.31;;;9.96;98.83
72086;BME280;64750;52.134;5.424;2023-01-04T06:36:56;101554.38;;;9.98;98.82
72086;BME280;64750;52.134;5.424;2023-01-04T06:39:23;101548.97;;;10.01;98.61
72086;BME280;64750;52.134;5.424;2023-01-04T06:41:49;101538.34;;;10.04;98.75
72086;BME280;64750;52.134;5.424;2023-01-04T06:44:15;101535.72;;;10.04;98.80
72086;BME280;64750;52.134;5.424;2023-01-04T06:46:42;101526.13;;;10.03;98.80
72086;BME280;64750;52.134;5.424;2023-01-04T06:49:08;101536.47;;;10.06;98.88
72086;BME280;64750;52.134;5.424;2023-01-04T06:51:35;101523.41;;;10.05;98.75
72086;BME280;64750;52.134;5.424;2023-01-04T06:54:01;101532.91;;;10.07;98.65
72086;BME280;64750;52.134;5.424;2023-01-04T06:56:28;101505.66;;;10.10;98.95
72086;BME280;64750;52.134;5.424;2023-01-04T06:58:56;101522.28;;;10.10;98.88
72086;BME280;64750;52.134;5.424;2023-01-04T07:01:22;101513.53;;;10.10;98.74
72086;BME280;64750;52.134;5.424;2023-01-04T07:03:49;101504.81;;;10.09;98.72
72086;BME280;64750;52.134;5.424;2023-01-04T07:06:15;101509.19;;;10.09;98.94
72086;BME280;64750;52.134;5.424;2023-01-04T07:08:42;101503.81;;;10.12;98.63
72086;BME280;64750;52.134;5.424;2023-01-04T07:11:08;101502.13;;;10.11;98.66
72086;BME280;64750;52.134;5.424;2023-01-04T07:13:35;101502.91;;;10.13;98.56
72086;BME280;64750;52.134;5.424;2023-01-04T07:16:01;101495.88;;;10.13;98.80
72086;BME280;64750;52.134;5.424;2023-01-04T07:18:28;101494.88;;;10.16;98.71
72086;BME280;64750;52.134;5.424;2023-01-04T07:20:54;101488.78;;;10.15;98.61
72086;BME280;64750;52.134;5.424;2023-01-04T07:23:21;101489.53;;;10.17;98.56
72086;BME280;64750;52.134;5.424;2023-01-04T07:25:47;101483.53;;;10.15;98.61
72086;BME280;64750;52.134;5.424;2023-01-04T07:28:13;101478.09;;;10.18;98.49
72086;BME280;64750;52.134;5.424;2023-01-04T07:31:06;101478.09;;;10.18;98.47
72086;BME280;64750;52.134;5.424;2023-01-04T07:33:32;101475.56;;;10.17;98.47
72086;BME280;64750;52.134;5.424;2023-01-04T07:36:04;101496.56;;;10.17;98.52
72086;BME280;64750;52.134;5.424;2023-01-04T07:38:32;101492.94;;;10.20;98.46
72086;BME280;64750;52.134;5.424;2023-01-04T07:40:59;101484.22;;;10.19;98.40
72086;BME280;64750;52.134;5.424;2023-01-04T07:43:25;101484.06;;;10.22;98.50
72086;BME280;64750;52.134;5.424;2023-01-04T07:45:54;101484.06;;;10.22;98.54
72086;BME280;64750;52.134;5.424;2023-01-04T07:48:20;101474.47;;;10.21;98.57
72086;BME280;64750;52.134;5.424;2023-01-04T07:50:48;101486.78;;;10.21;98.60
72086;BME280;64750;52.134;5.424;2023-01-04T07:53:15;101473.63;;;10.21;98.65
72086;BME280;64750;52.134;5.424;2023-01-04T07:55:41;101464.06;;;10.20;98.54
72086;BME280;64750;52.134;5.424;2023-01-04T07:58:08;101472.84;;;10.18;98.60
72086;BME280;64750;52.134;5.424;2023-01-04T08:00:34;101472.84;;;10.18;98.72
72086;BME280;64750;52.134;5.424;2023-01-04T08:03:00;101472.84;;;10.18;98.72
72086;BME280;64750;52.134;5.424;2023-01-04T08:05:27;101470.16;;;10.20;98.81
72086;BME280;64750;52.134;5.424;2023-01-04T08:07:56;101469.16;;;10.23;98.70
72086;BME280;64750;52.134;5.424;2023-01-04T08:10:23;101482.28;;;10.23;98.62
72086;BME280;64750;52.134;5.424;2023-01-04T08:12:49;101459.59;;;10.22;98.69
72086;BME280;64750;52.134;5.424;2023-01-04T08:15:16;101477.81;;;10.25;98.85
72086;BME280;64750;52.134;5.424;2023-01-04T08:17:42;101469.00;;;10.26;98.76
72086;BME280;64750;52.134;5.424;2023-01-04T08:20:09;101475.97;;;10.27;98.60
72086;BME280;64750;52.134;5.424;2023-01-04T08:22:35;101471.56;;;10.27;98.75
72086;BME280;64750;52.134;5.424;2023-01-04T08:25:02;101481.16;;;10.28;99.01
72086;BME280;64750;52.134;5.424;2023-01-04T08:27:31;101481.06;;;10.30;98.70
72086;BME280;64750;52.134;5.424;2023-01-04T08:29:58;101473.09;;;10.31;98.76
72086;BME280;64750;52.134;5.424;2023-01-04T08:32:24;101470.41;;;10.33;98.70
72086;BME280;64750;52.134;5.424;2023-01-04T08:34:51;101484.47;;;10.32;98.88
72086;BME280;64750;52.134;5.424;2023-01-04T08:37:19;101469.47;;;10.34;98.67
72086;BME280;64750;52.134;5.424;2023-01-04T08:39:45;101475.66;;;10.33;98.80
72086;BME280;64750;52.134;5.424;2023-01-04T08:42:15;101462.47;;;10.34;98.89
72086;BME280;64750;52.134;5.424;2023-01-04T08:44:53;101469.38;;;10.37;98.72
72086;BME280;64750;52.134;5.424;2023-01-04T08:47:25;101472.91;;;10.36;99.13
72086;BME280;64750;52.134;5.424;2023-01-04T08:49:52;101479.94;;;10.36;99.11
72086;BME280;64750;52.134;5.424;2023-01-04T08:52:18;101486.75;;;10.40;99.09
72086;BME280;64750;52.134;5.424;2023-01-04T08:54:45;101484.97;;;10.40;99.20
72086;BME280;64750;52.134;5.424;2023-01-04T08:57:11;101481.50;;;10.40;99.25
72086;BME280;64750;52.134;5.424;2023-01-04T08:59:38;101477.09;;;10.40;99.07
72086;BME280;64750;52.134;5.424;2023-01-04T09:02:21;101483.28;;;10.39;99.18
72086;BME280;64750;52.134;5.424;2023-01-04T09:04:49;101495.56;;;10.39;99.12
72086;BME280;64750;52.134;5.424;2023-01-04T09:07:16;101483.28;;;10.39;99.10
72086;BME280;64750;52.134;5.424;2023-01-04T09:09:43;101488.44;;;10.41;99.32
72086;BME280;64750;52.134;5.424;2023-01-04T09:12:09;101466.41;;;10.43;99.32
72086;BME280;64750;52.134;5.424;2023-01-04T09:14:36;101501.38;;;10.45;99.35
72086;BME280;64750;52.134;5.424;2023-01-04T09:17:04;101495.19;;;10.46;99.24
72086;BME280;64750;52.134;5.424;2023-01-04T09:19:30;101491.69;;;10.46;99.36
72086;BME280;64750;52.134;5.424;2023-01-04T09:21:57;101506.63;;;10.45;99.26
72086;BME280;64750;52.134;5.424;2023-01-04T09:24:23;101489.06;;;10.46;99.36
72086;BME280;64750;52.134;5.424;2023-01-04T09:26:50;101507.47;;;10.46;99.37
72086;BME280;64750;52.134;5.424;2023-01-04T09:29:16;101499.53;;;10.47;99.41
72086;BME280;64750;52.134;5.424;2023-01-04T09:31:43;101507.34;;;10.49;99.41
72086;BME280;64750;52.134;5.424;2023-01-04T09:34:10;101504.63;;;10.50;99.55
72086;BME280;64750;52.134;5.424;2023-01-04T09:36:41;101506.34;;;10.52;99.63
72086;BME280;64750;52.134;5.424;2023-01-04T09:39:08;101508.88;;;10.53;99.53
72086;BME280;64750;52.134;5.424;2023-01-04T09:41:48;101520.22;;;10.54;99.73
72086;BME280;64750;52.134;5.424;2023-01-04T09:44:39;101509.41;;;10.60;99.61
72086;BME280;64750;52.134;5.424;2023-01-04T09:50:21;101519.78;;;10.63;99.68
72086;BME280;64750;52.134;5.424;2023-01-04T09:53:15;101511.84;;;10.64;99.66
72086;BME280;64750;52.134;5.424;2023-01-04T09:55:46;101511.84;;;10.64;99.77
72086;BME280;64750;52.134;5.424;2023-01-04T09:58:28;101505.78;;;10.62;99.61
72086;BME280;64750;52.134;5.424;2023-01-04T10:01:10;101509.28;;;10.63;99.62
72086;BME280;64750;52.134;5.424;2023-01-04T10:04:04;101513.63;;;10.64;99.70
72086;BME280;64750;52.134;5.424;2023-01-04T10:06:33;101512.66;;;10.65;99.58
72086;BME280;64750;52.134;5.424;2023-01-04T10:09:05;101525.75;;;10.66;99.72
72086;BME280;64750;52.134;5.424;2023-01-04T10:11:44;101520.34;;;10.70;99.78
72086;BME280;64750;52.134;5.424;2023-01-04T10:14:44;101522.03;;;10.71;99.72
72086;BME280;64750;52.134;5.424;2023-01-04T10:17:42;101521.13;;;10.72;99.79
72086;BME280;64750;52.134;5.424;2023-01-04T10:23:33;101521.03;;;10.73;99.71
72086;BME280;64750;52.134;5.424;2023-01-04T10:26:23;101515.78;;;10.73;99.79
72086;BME280;64750;52.134;5.424;2023-01-04T10:29:18;101509.66;;;10.73;99.71
72086;BME280;64750;52.134;5.424;2023-01-04T10:32:23;101510.44;;;10.75;99.65
72086;BME280;64750;52.134;5.424;2023-01-04T10:34:55;101500.75;;;10.75;99.57
72086;BME280;64750;52.134;5.424;2023-01-04T10:37:32;101515.63;;;10.76;99.68
72086;BME280;64750;52.134;5.424;2023-01-04T10:40:00;101510.44;;;10.75;99.50
72086;BME280;64750;52.134;5.424;2023-01-04T10:45:12;101519.13;;;10.77;99.65
72086;BME280;64750;52.134;5.424;2023-01-04T10:48:13;101517.31;;;10.77;99.65
72086;BME280;64750;52.134;5.424;2023-01-04T10:50:53;101497.22;;;10.76;99.60
72086;BME280;64750;52.134;5.424;2023-01-04T10:53:50;101498.00;;;10.78;99.63
72086;BME280;64750;52.134;5.424;2023-01-04T10:56:27;101495.38;;;10.78;99.64
72086;BME280;64750;52.134;5.424;2023-01-04T10:59:03;101483.06;;;10.79;99.70
72086;BME280;64750;52.134;5.424;2023-01-04T11:01:43;101496.13;;;10.80;99.68
72086;BME280;64750;52.134;5.424;2023-01-04T11:09:39;101485.47;;;10.83;99.76
72086;BME280;64750;52.134;5.424;2023-01-04T11:12:10;101481.03;;;10.84;99.78
72086;BME280;64750;52.134;5.424;2023-01-04T11:14:38;101470.53;;;10.84;99.72
72086;BME280;64750;52.134;5.424;2023-01-04T11:17:06;101457.28;;;10.86;99.82
72086;BME280;64750;52.134;5.424;2023-01-04T11:19:35;101470.44;;;10.86;99.83
72086;BME280;64750;52.134;5.424;2023-01-04T11:22:12;101457.22;;;10.87;99.75
72086;BME280;64750;52.134;5.424;2023-01-04T11:24:41;101458.91;;;10.88;99.59
72086;BME280;64750;52.134;5.424;2023-01-04T11:27:37;101443.06;;;10.90;99.59
72086;BME280;64750;52.134;5.424;2023-01-04T11:33:07;101444.84;;;10.89;99.66
72086;BME280;64750;52.134;5.424;2023-01-04T11:35:46;101447.34;;;10.92;99.71
72086;BME280;64750;52.134;5.424;2023-01-04T11:38:17;101449.00;;;10.93;99.69
72086;BME280;64750;52.134;5.424;2023-01-04T11:41:00;101440.38;;;10.91;99.59
72086;BME280;64750;52.134;5.424;2023-01-04T11:43:31;101432.38;;;10.93;99.59
72086;BME280;64750;52.134;5.424;2023-01-04T11:46:20;101443.69;;;10.95;99.55
72086;BME280;64750;52.134;5.424;2023-01-04T11:48:47;101453.19;;;10.97;99.58
72086;BME280;64750;52.134;5.424;2023-01-04T11:53:55;101437.16;;;11.02;99.37
72086;BME280;64750;52.134;5.424;2023-01-04T11:56:23;101440.56;;;11.04;99.41
72086;BME280;64750;52.134;5.424;2023-01-04T11:59:11;101444.91;;;11.05;99.32
72086;BME280;64750;52.134;5.424;2023-01-04T12:01:45;101448.28;;;11.07;99.19
72086;BME280;64750;52.134;5.424;2023-01-04T12:04:15;101448.22;;;11.09;99.47
72086;BME280;64750;52.134;5.424;2023-01-04T12:06:49;101455.16;;;11.10;98.90
72086;BME280;64750;52.134;5.424;2023-01-04T12:09:19;101431.44;;;11.11;98.81
72086;BME280;64750;52.134;5.424;2023-01-04T12:11:51;101427.84;;;11.12;98.78
72086;BME280;64750;52.134;5.424;2023-01-04T12:14:30;101419.03;;;11.13;98.52
72086;BME280;64750;52.134;5.424;2023-01-04T12:19:51;101437.34;;;11.15;98.45
72086;BME280;64750;52.134;5.424;2023-01-04T12:24:56;101428.44;;;11.18;97.57
72086;BME280;64750;52.134;5.424;2023-01-04T12:27:47;101430.00;;;11.22;97.43
72086;BME280;64750;52.134;5.424;2023-01-04T12:32:58;101425.50;;;11.24;97.03
72086;BME280;64750;52.134;5.424;2023-01-04T12:36:00;101413.13;;;11.26;96.86
72086;BME280;64750;52.134;5.424;2023-01-04T12:50:09;101422.81;;;11.41;95.00
72086;BME280;64750;52.134;5.424;2023-01-04T12:52:45;101420.94;;;11.43;94.65
72086;BME280;64750;52.134;5.424;2023-01-04T13:03:53;101426.03;;;11.46;93.89
72086;BME280;64750;52.134;5.424;2023-01-04T13:06:28;101421.56;;;11.48;93.87
72086;BME280;64750;52.134;5.424;2023-01-04T13:08:56;101430.28;;;11.49;93.80
72086;BME280;64750;52.134;5.424;2023-01-04T13:11:46;101430.28;;;11.49;93.54
72086;BME280;64750;52.134;5.424;2023-01-04T13:14:26;101430.19;;;11.51;93.45
72086;BME280;64750;52.134;5.424;2023-01-04T13:19:27;101432.84;;;11.51;93.45
72086;BME280;64750;52.134;5.424;2023-01-04T13:21:54;101433.69;;;11.51;93.38
72086;BME280;64750;52.134;5.424;2023-01-04T13:24:26;101427.56;;;11.51;93.51
72086;BME280;64750;52.134;5.424;2023-01-04T13:26:54;101423.19;;;11.51;93.41
72086;BME280;64750;52.134;5.424;2023-01-04T13:29:30;101434.44;;;11.53;93.17
72086;BME280;64750;52.134;5.424;2023-01-04T13:31:59;101424.78;;;11.54;92.97
72086;BME280;64750;52.134;5.424;2023-01-04T13:34:30;101436.06;;;11.56;92.82
72086;BME280;64750;52.134;5.424;2023-01-04T13:39:24;101423.84;;;11.55;92.75
72086;BME280;64750;52.134;5.424;2023-01-04T13:41:50;101429.09;;;11.55;92.59
72086;BME280;64750;52.134;5.424;2023-01-04T13:44:28;101431.72;;;11.55;92.51
72086;BME280;64750;52.134;5.424;2023-01-04T13:47:17;101419.53;;;11.54;92.58
72086;BME280;64750;52.134;5.424;2023-01-04T13:49:44;101419.59;;;11.52;92.45
72086;BME280;64750;52.134;5.424;2023-01-04T13:52:27;101415.19;;;11.53;92.43
72086;BME280;64750;52.134;5.424;2023-01-04T13:55:20;101414.25;;;11.54;92.39
72086;BME280;64750;52.134;5.424;2023-01-04T13:58:02;101426.56;;;11.53;92.44
72086;BME280;64750;52.134;5.424;2023-01-04T14:00:35;101408.22;;;11.52;92.47
72086;BME280;64750;52.134;5.424;2023-01-04T14:03:19;101411.78;;;11.51;92.48
72086;BME280;64750;52.134;5.424;2023-01-04T14:05:50;101416.03;;;11.53;92.13
72086;BME280;64750;52.134;5.424;2023-01-04T14:08:28;101427.41;;;11.54;91.88
72086;BME280;64750;52.134;5.424;2023-01-04T14:10:57;101412.56;;;11.53;91.94
72086;BME280;64750;52.134;5.424;2023-01-04T14:13:23;101418.75;;;11.52;92.06
72086;BME280;64750;52.134;5.424;2023-01-04T14:16:03;101412.69;;;11.49;91.94
72086;BME280;64750;52.134;5.424;2023-01-04T14:18:30;101407.38;;;11.51;91.92
72086;BME280;64750;52.134;5.424;2023-01-04T14:20:57;101429.28;;;11.52;91.55
72086;BME280;64750;52.134;5.424;2023-01-04T14:23:34;101417.03;;;11.51;91.66
72086;BME280;64750;52.134;5.424;2023-01-04T14:26:02;101407.53;;;11.48;91.72
72086;BME280;64750;52.134;5.424;2023-01-04T14:28:34;101404.81;;;11.49;91.48
72086;BME280;64750;52.134;5.424;2023-01-04T14:31:18;101408.41;;;11.48;91.47
72086;BME280;64750;52.134;5.424;2023-01-04T14:33:49;101406.69;;;11.47;91.09
72086;BME280;64750;52.134;5.424;2023-01-04T14:41:37;101415.59;;;11.45;90.94
72086;BME280;64750;52.134;5.424;2023-01-04T14:46:37;101402.59;;;11.42;91.16
72086;BME280;64750;52.134;5.424;2023-01-04T14:49:04;101408.78;;;11.41;90.94
72086;BME280;64750;52.134;5.424;2023-01-04T14:51:37;101401.84;;;11.40;90.78
72086;BME280;64750;52.134;5.424;2023-01-04T14:54:08;101385.97;;;11.41;90.68